createdAt,value
2017-05-25T00:00:54.845Z,96.27
2017-05-25T00:01:56.296Z,96.46
2017-05-25T00:02:57.751Z,96.27
2017-05-25T00:03:59.205Z,96.75
2017-05-25T00:05:00.675Z,96.56
2017-05-25T00:06:02.146Z,96.46
2017-05-25T00:07:03.601Z,96.75
2017-05-25T00:08:05.051Z,96.84
2017-05-25T00:09:06.509Z,96.75
2017-05-25T00:10:07.952Z,97.42
2017-05-25T00:11:09.405Z,97.22
2017-05-25T00:12:10.868Z,97.42
2017-05-25T00:13:12.336Z,97.89
2017-05-25T00:14:13.785Z,98.18
2017-05-25T00:15:15.236Z,97.71
2017-05-25T00:16:16.686Z,97.80
2017-05-25T00:17:18.143Z,97.99
2017-05-25T00:18:19.603Z,97.71
2017-05-25T00:19:21.053Z,97.17
2017-05-25T00:20:22.505Z,97.94
2017-05-25T00:21:23.967Z,98.22
2017-05-25T00:22:25.424Z,98.03
2017-05-25T00:23:26.879Z,98.32
2017-05-25T00:24:28.332Z,98.22
2017-05-25T00:25:29.793Z,98.90
2017-05-25T00:26:31.254Z,98.70
2017-05-25T00:27:32.707Z,98.90
2017-05-25T00:28:34.163Z,99.08
2017-05-25T00:29:35.617Z,98.61
2017-05-25T00:30:37.080Z,98.42
2017-05-25T00:31:38.535Z,98.80
2017-05-25T00:32:39.989Z,98.70
2017-05-25T00:33:41.443Z,98.42
2017-05-25T00:34:42.891Z,99.27
2017-05-25T00:35:44.344Z,98.03
2017-05-25T00:36:45.800Z,98.13
2017-05-25T00:37:47.267Z,98.61
2017-05-25T00:38:48.723Z,98.70
2017-05-25T00:39:50.177Z,98.22
2017-05-25T00:40:51.636Z,99.37
2017-05-25T00:41:53.136Z,99.18
2017-05-25T00:42:54.586Z,99.27
2017-05-25T00:43:56.040Z,99.37
2017-05-25T00:44:57.495Z,99.56
2017-05-25T00:45:58.976Z,99.99
2017-05-25T00:47:00.436Z,99.99
2017-05-25T00:48:01.894Z,99.99
2017-05-25T00:49:03.344Z,99.46
2017-05-25T00:50:04.791Z,99.99
2017-05-25T00:51:06.255Z,99.99
2017-05-25T00:52:07.713Z,99.99
2017-05-25T00:53:09.164Z,99.99
2017-05-25T00:54:10.616Z,99.99
2017-05-25T00:55:12.072Z,99.99
2017-05-25T00:56:13.620Z,99.99
2017-05-25T00:57:14.989Z,99.99
2017-05-25T00:58:16.438Z,99.99
2017-05-25T00:59:17.897Z,99.99
2017-05-25T01:00:19.352Z,99.99
2017-05-25T01:01:20.821Z,99.99
2017-05-25T01:02:22.278Z,99.99
2017-05-25T01:03:23.729Z,99.99
2017-05-25T01:04:25.185Z,99.99
2017-05-25T01:05:26.643Z,99.99
2017-05-25T01:06:28.099Z,99.99
2017-05-25T01:07:29.554Z,99.99
2017-05-25T01:08:31.021Z,99.99
2017-05-25T01:09:32.489Z,99.99
2017-05-25T01:10:33.942Z,99.99
2017-05-25T01:11:35.395Z,99.99
2017-05-25T01:12:36.854Z,99.99
2017-05-25T01:13:38.303Z,99.99
2017-05-25T01:14:39.757Z,99.99
2017-05-25T01:15:41.207Z,99.99
2017-05-25T01:16:42.663Z,99.99
2017-05-25T01:17:44.118Z,99.99
2017-05-25T01:18:45.569Z,99.99
2017-05-25T01:19:47.025Z,99.99
2017-05-25T01:20:48.481Z,99.99
2017-05-25T01:21:49.944Z,99.99
2017-05-25T01:22:51.399Z,99.99
2017-05-25T01:23:52.889Z,99.99
2017-05-25T01:24:54.328Z,99.99
2017-05-25T01:25:55.778Z,99.99
2017-05-25T01:26:57.235Z,99.99
2017-05-25T01:27:58.686Z,99.99
2017-05-25T01:29:00.137Z,99.99
2017-05-25T01:30:01.603Z,99.99
2017-05-25T01:31:03.049Z,99.99
2017-05-25T01:32:04.515Z,99.99
2017-05-25T01:33:05.961Z,99.99
2017-05-25T01:34:07.405Z,99.99
2017-05-25T01:35:08.858Z,99.99
2017-05-25T01:36:10.335Z,99.99
2017-05-25T01:37:11.790Z,99.99
2017-05-25T01:38:13.244Z,99.99
2017-05-25T01:39:14.693Z,99.99
2017-05-25T01:40:16.141Z,99.99
2017-05-25T01:41:17.590Z,99.99
2017-05-25T01:42:19.045Z,99.99
2017-05-25T01:43:20.512Z,99.99
2017-05-25T01:44:21.962Z,99.99
2017-05-25T01:45:23.416Z,99.99
2017-05-25T01:46:24.873Z,99.99
2017-05-25T01:47:26.314Z,99.99
2017-05-25T01:48:27.765Z,99.99
2017-05-25T01:49:29.218Z,99.99
2017-05-25T01:50:30.672Z,99.99
2017-05-25T01:51:32.129Z,99.99
2017-05-25T01:52:33.586Z,99.99
2017-05-25T01:53:35.045Z,99.99
2017-05-25T01:54:36.495Z,99.99
2017-05-25T01:55:37.944Z,99.99
2017-05-25T01:56:39.412Z,99.99
2017-05-25T01:57:40.871Z,99.99
2017-05-25T01:58:42.326Z,99.99
2017-05-25T01:59:43.778Z,99.99
2017-05-25T02:00:45.228Z,99.99
2017-05-25T02:01:46.682Z,99.99
2017-05-25T02:02:48.139Z,99.99
2017-05-25T02:03:49.588Z,99.99
2017-05-25T02:04:51.039Z,99.99
2017-05-25T02:05:52.494Z,99.99
2017-05-25T02:06:53.951Z,99.99
2017-05-25T02:07:55.413Z,99.99
2017-05-25T02:08:56.866Z,99.99
2017-05-25T02:09:58.331Z,99.99
2017-05-25T02:10:59.790Z,99.99
2017-05-25T02:12:01.259Z,99.99
2017-05-25T02:13:02.715Z,99.99
2017-05-25T02:14:04.172Z,99.99
2017-05-25T02:15:05.635Z,99.99
2017-05-25T02:16:07.087Z,99.99
2017-05-25T02:17:08.532Z,99.99
2017-05-25T02:18:09.987Z,99.99
2017-05-25T02:19:11.441Z,99.99
2017-05-25T02:20:12.892Z,99.99
2017-05-25T02:21:14.343Z,99.99
2017-05-25T02:22:15.799Z,99.99
2017-05-25T02:23:17.254Z,99.99
2017-05-25T02:24:18.701Z,99.99
2017-05-25T02:25:20.146Z,99.99
2017-05-25T02:26:21.601Z,99.99
2017-05-25T02:27:23.053Z,99.99
2017-05-25T02:28:24.510Z,99.99
2017-05-25T02:29:25.960Z,99.99
2017-05-25T02:30:27.411Z,99.99
2017-05-25T02:31:28.862Z,99.99
2017-05-25T02:32:30.323Z,99.99
2017-05-25T02:33:31.805Z,99.99
2017-05-25T02:34:33.260Z,99.99
2017-05-25T02:35:34.710Z,99.99
2017-05-25T02:36:36.168Z,99.99
2017-05-25T02:37:37.622Z,99.99
2017-05-25T02:38:39.072Z,99.99
2017-05-25T02:39:40.525Z,99.99
2017-05-25T02:40:41.979Z,99.99
2017-05-25T02:41:43.435Z,99.99
2017-05-25T02:42:44.894Z,99.99
2017-05-25T02:43:46.354Z,99.99
2017-05-25T02:44:47.804Z,99.99
2017-05-25T02:45:49.256Z,99.99
2017-05-25T02:46:50.719Z,99.99
2017-05-25T02:47:52.172Z,99.99
2017-05-25T02:48:53.625Z,99.99
2017-05-25T02:49:55.076Z,99.99
2017-05-25T02:50:56.519Z,99.99
2017-05-25T02:51:57.976Z,99.99
2017-05-25T02:52:59.424Z,99.99
2017-05-25T02:54:00.886Z,99.99
2017-05-25T02:55:02.353Z,99.99
2017-05-25T02:56:03.800Z,99.99
2017-05-25T02:57:05.253Z,99.99
2017-05-25T02:58:06.716Z,99.99
2017-05-25T02:59:08.168Z,99.99
2017-05-25T03:00:09.617Z,99.99
2017-05-25T03:01:11.082Z,99.99
2017-05-25T03:02:12.539Z,99.99
2017-05-25T03:03:13.992Z,99.99
2017-05-25T03:04:15.447Z,99.99
2017-05-25T03:05:16.906Z,99.99
2017-05-25T03:06:18.378Z,99.99
2017-05-25T03:07:19.834Z,99.99
2017-05-25T03:08:21.283Z,99.99
2017-05-25T03:09:22.749Z,99.99
2017-05-25T03:10:24.201Z,99.99
2017-05-25T03:11:25.659Z,99.99
2017-05-25T03:12:27.128Z,99.99
2017-05-25T03:13:28.594Z,99.99
2017-05-25T03:14:30.043Z,99.99
2017-05-25T03:15:31.502Z,99.99
2017-05-25T03:16:32.954Z,99.99
2017-05-25T03:17:34.410Z,99.99
2017-05-25T03:18:35.877Z,99.99
2017-05-25T03:19:37.323Z,99.99
2017-05-25T03:20:38.780Z,99.99
2017-05-25T03:21:40.234Z,99.99
2017-05-25T03:22:41.692Z,99.99
2017-05-25T03:23:43.145Z,99.99
2017-05-25T03:24:44.601Z,99.99
2017-05-25T03:25:46.064Z,99.99
2017-05-25T03:26:47.531Z,99.99
2017-05-25T03:27:49.010Z,99.99
2017-05-25T03:28:50.469Z,99.99
2017-05-25T03:29:51.926Z,99.99
2017-05-25T03:30:53.389Z,99.99
2017-05-25T03:31:54.883Z,99.99
2017-05-25T03:32:56.348Z,99.99
2017-05-25T03:33:57.797Z,99.99
2017-05-25T03:34:59.267Z,99.99
2017-05-25T03:36:01.436Z,99.99
2017-05-25T03:37:02.897Z,99.99
2017-05-25T03:38:04.354Z,99.99
2017-05-25T03:39:05.848Z,99.56
2017-05-25T03:40:07.301Z,99.52
2017-05-25T03:41:08.755Z,99.99
2017-05-25T03:42:10.217Z,99.99
2017-05-25T03:43:11.673Z,99.99
2017-05-25T03:44:13.130Z,99.80
2017-05-25T03:45:14.588Z,99.99
2017-05-25T03:46:16.048Z,99.52
2017-05-25T03:47:17.522Z,99.99
2017-05-25T03:48:18.985Z,99.52
2017-05-25T03:49:20.436Z,99.42
2017-05-25T03:50:21.902Z,99.61
2017-05-25T03:51:23.362Z,99.23
2017-05-25T03:52:24.836Z,98.66
2017-05-25T03:53:26.302Z,99.71
2017-05-25T03:54:27.768Z,98.75
2017-05-25T03:55:29.235Z,99.42
2017-05-25T03:56:30.711Z,98.66
2017-05-25T03:57:32.172Z,98.47
2017-05-25T03:58:33.632Z,97.99
2017-05-25T03:59:35.100Z,98.85
2017-05-25T04:00:36.557Z,98.75
2017-05-25T04:01:38.019Z,99.13
2017-05-25T04:02:39.484Z,98.85
2017-05-25T04:03:40.958Z,99.32
2017-05-25T04:04:42.430Z,99.61
2017-05-25T04:05:43.905Z,97.89
2017-05-25T04:06:45.369Z,98.47
2017-05-25T04:07:46.826Z,98.18
2017-05-25T04:08:48.291Z,98.37
2017-05-25T04:09:49.747Z,97.99
2017-05-25T04:10:51.213Z,98.08
2017-05-25T04:11:52.669Z,97.32
2017-05-25T04:12:54.125Z,98.08
2017-05-25T04:13:55.587Z,97.51
2017-05-25T04:14:57.044Z,98.56
2017-05-25T04:15:58.507Z,98.18
2017-05-25T04:16:59.969Z,97.80
2017-05-25T04:18:01.415Z,97.71
2017-05-25T04:19:02.874Z,97.32
2017-05-25T04:20:04.327Z,97.99
2017-05-25T04:21:05.779Z,97.03
2017-05-25T04:22:07.241Z,97.13
2017-05-25T04:23:08.697Z,97.22
2017-05-25T04:24:10.159Z,96.84
2017-05-25T04:25:11.612Z,97.80
2017-05-25T04:26:13.072Z,97.42
2017-05-25T04:27:14.530Z,96.84
2017-05-25T04:28:15.986Z,96.94
2017-05-25T04:29:17.444Z,96.56
2017-05-25T04:30:18.909Z,96.08
2017-05-25T04:31:20.362Z,96.17
2017-05-25T04:32:21.819Z,95.98
2017-05-25T04:33:23.275Z,96.08
2017-05-25T04:34:24.731Z,96.03
2017-05-25T04:35:26.191Z,95.22
2017-05-25T04:36:27.653Z,95.75
2017-05-25T04:37:29.116Z,95.08
2017-05-25T04:38:30.574Z,95.08
2017-05-25T04:39:32.036Z,94.98
2017-05-25T04:40:33.499Z,94.41
2017-05-25T04:41:34.957Z,94.41
2017-05-25T04:42:36.420Z,94.51
2017-05-25T04:43:37.874Z,94.60
2017-05-25T04:44:39.335Z,93.74
2017-05-25T04:45:40.788Z,93.65
2017-05-25T04:46:42.246Z,93.55
2017-05-25T04:47:43.702Z,93.36
2017-05-25T04:48:45.164Z,93.55
2017-05-25T04:49:46.619Z,93.07
2017-05-25T04:50:48.085Z,92.60
2017-05-25T04:51:49.536Z,92.41
2017-05-25T04:52:50.999Z,92.41
2017-05-25T04:53:52.454Z,92.31
2017-05-25T04:54:53.909Z,92.12
2017-05-25T04:55:55.375Z,91.93
2017-05-25T04:56:56.838Z,91.74
2017-05-25T04:57:58.298Z,91.83
2017-05-25T04:58:59.760Z,91.45
2017-05-25T05:00:01.218Z,91.36
2017-05-25T05:01:02.677Z,91.26
2017-05-25T05:02:04.132Z,91.26
2017-05-25T05:03:05.593Z,91.55
2017-05-25T05:04:07.082Z,91.45
2017-05-25T05:05:08.540Z,91.64
2017-05-25T05:06:10.030Z,91.16
2017-05-25T05:07:11.499Z,90.78
2017-05-25T05:08:12.972Z,90.92
2017-05-25T05:09:14.430Z,90.73
2017-05-25T05:10:15.887Z,91.21
2017-05-25T05:11:17.403Z,91.11
2017-05-25T05:12:18.768Z,90.54
2017-05-25T05:13:20.232Z,90.64
2017-05-25T05:14:21.692Z,90.25
2017-05-25T05:15:23.150Z,90.45
2017-05-25T05:16:24.605Z,90.92
2017-05-25T05:17:26.062Z,90.88
2017-05-25T05:18:27.518Z,91.40
2017-05-25T05:19:28.989Z,90.88
2017-05-25T05:20:30.483Z,90.78
2017-05-25T05:21:31.939Z,91.26
2017-05-25T05:22:33.398Z,91.02
2017-05-25T05:23:34.856Z,90.64
2017-05-25T05:24:36.322Z,90.50
2017-05-25T05:25:37.802Z,90.88
2017-05-25T05:26:39.273Z,90.97
2017-05-25T05:27:40.736Z,90.73
2017-05-25T05:28:42.202Z,90.78
2017-05-25T05:29:43.661Z,90.45
2017-05-25T05:30:45.122Z,90.16
2017-05-25T05:31:46.574Z,90.16
2017-05-25T05:32:48.033Z,89.59
2017-05-25T05:33:49.495Z,89.59
2017-05-25T05:34:50.964Z,88.82
2017-05-25T05:35:52.419Z,89.11
2017-05-25T05:36:53.879Z,89.01
2017-05-25T05:37:55.341Z,88.44
2017-05-25T05:38:56.797Z,88.44
2017-05-25T05:39:58.258Z,88.73
2017-05-25T05:40:59.716Z,89.11
2017-05-25T05:42:01.182Z,88.63
2017-05-25T05:43:02.638Z,88.63
2017-05-25T05:44:04.099Z,88.54
2017-05-25T05:45:05.555Z,87.77
2017-05-25T05:46:07.019Z,87.68
2017-05-25T05:47:08.476Z,87.72
2017-05-25T05:48:09.937Z,87.96
2017-05-25T05:49:11.398Z,86.91
2017-05-25T05:50:12.853Z,87.87
2017-05-25T05:51:14.317Z,87.58
2017-05-25T05:52:15.783Z,87.77
2017-05-25T05:53:17.248Z,87.20
2017-05-25T05:54:18.707Z,87.05
2017-05-25T05:55:20.176Z,86.29
2017-05-25T05:56:21.647Z,85.90
2017-05-25T05:57:23.116Z,84.89
2017-05-25T05:58:24.580Z,84.23
2017-05-25T05:59:26.041Z,83.75
2017-05-25T06:00:27.512Z,83.46
2017-05-25T06:01:28.985Z,83.17
2017-05-25T06:02:30.456Z,82.60
2017-05-25T06:03:31.924Z,82.70
2017-05-25T06:04:33.382Z,83.27
2017-05-25T06:05:34.849Z,83.08
2017-05-25T06:06:36.327Z,83.27
2017-05-25T06:07:37.795Z,82.79
2017-05-25T06:08:39.263Z,82.51
2017-05-25T06:09:40.720Z,82.31
2017-05-25T06:10:42.187Z,82.41
2017-05-25T06:11:43.661Z,81.84
2017-05-25T06:12:45.125Z,81.74
2017-05-25T06:13:46.588Z,81.84
2017-05-25T06:14:48.051Z,82.03
2017-05-25T06:15:49.514Z,81.68
2017-05-25T06:16:50.981Z,80.82
2017-05-25T06:17:52.443Z,79.43
2017-05-25T06:18:53.950Z,78.57
2017-05-25T06:19:55.407Z,75.96
2017-05-25T06:20:56.864Z,74.33
2017-05-25T06:21:58.358Z,74.62
2017-05-25T06:22:59.816Z,74.62
2017-05-25T06:24:01.277Z,73.95
2017-05-25T06:25:02.745Z,73.57
2017-05-25T06:26:04.207Z,72.84
2017-05-25T06:27:05.673Z,71.50
2017-05-25T06:28:07.145Z,70.83
2017-05-25T06:29:08.622Z,70.19
2017-05-25T06:30:10.104Z,70.48
2017-05-25T06:31:11.576Z,69.65
2017-05-25T06:32:13.045Z,67.86
2017-05-25T06:33:14.520Z,64.56
2017-05-25T06:34:15.995Z,63.60
2017-05-25T06:35:17.458Z,63.12
2017-05-25T06:36:18.933Z,63.22
2017-05-25T06:37:20.397Z,63.83
2017-05-25T06:38:22.079Z,64.50
2017-05-25T06:39:23.547Z,66.29
2017-05-25T06:40:25.019Z,66.58
2017-05-25T06:41:26.482Z,67.92
2017-05-25T06:42:27.970Z,68.12
2017-05-25T06:43:29.444Z,66.42
2017-05-25T06:44:30.922Z,63.22
2017-05-25T06:45:32.405Z,61.52
2017-05-25T06:46:33.874Z,59.69
2017-05-25T06:47:35.342Z,58.12
2017-05-25T06:48:36.813Z,56.51
2017-05-25T06:49:38.302Z,55.77
2017-05-25T06:50:39.775Z,55.55
2017-05-25T06:51:41.248Z,55.55
2017-05-25T06:52:42.727Z,56.20
2017-05-25T06:53:44.205Z,57.70
2017-05-25T06:54:45.670Z,56.70
2017-05-25T06:55:47.145Z,56.45
2017-05-25T06:56:48.638Z,57.03
2017-05-25T06:57:50.105Z,55.65
2017-05-25T06:58:51.570Z,53.96
2017-05-25T06:59:53.048Z,53.23
2017-05-25T07:00:54.524Z,54.03
2017-05-25T07:01:55.998Z,53.53
2017-05-25T07:02:57.476Z,55.07
2017-05-25T07:03:58.957Z,55.98
2017-05-25T07:05:00.432Z,56.00
2017-05-25T07:06:01.909Z,56.26
2017-05-25T07:07:03.378Z,57.13
2017-05-25T07:08:04.851Z,58.80
2017-05-25T07:09:06.331Z,59.57
2017-05-25T07:10:07.803Z,60.78
2017-05-25T07:11:09.274Z,62.19
2017-05-25T07:12:10.760Z,64.09
2017-05-25T07:13:12.231Z,62.99
2017-05-25T07:14:13.705Z,60.75
2017-05-25T07:15:15.179Z,58.31
2017-05-25T07:16:16.670Z,56.90
2017-05-25T07:17:18.155Z,54.22
2017-05-25T07:18:19.630Z,53.29
2017-05-25T07:19:21.113Z,51.51
2017-05-25T07:20:22.591Z,48.93
2017-05-25T07:21:24.064Z,48.44
2017-05-25T07:22:25.555Z,47.87
2017-05-25T07:23:27.027Z,50.71
2017-05-25T07:24:28.503Z,49.12
2017-05-25T07:25:29.976Z,48.74
2017-05-25T07:26:31.452Z,48.33
2017-05-25T07:27:32.926Z,49.58
2017-05-25T07:28:34.400Z,50.32
2017-05-25T07:29:35.877Z,50.81
2017-05-25T07:30:37.359Z,53.33
2017-05-25T07:31:38.824Z,55.88
2017-05-25T07:32:40.314Z,57.22
2017-05-25T07:33:41.796Z,58.45
2017-05-25T07:34:43.270Z,59.44
2017-05-25T07:35:44.758Z,60.69
2017-05-25T07:36:46.227Z,59.86
2017-05-25T07:37:47.702Z,60.24
2017-05-25T07:38:49.190Z,60.24
2017-05-25T07:39:50.686Z,59.66
2017-05-25T07:40:52.172Z,60.46
2017-05-25T07:41:53.652Z,57.83
2017-05-25T07:42:55.130Z,55.62
2017-05-25T07:43:56.605Z,55.52
2017-05-25T07:44:58.087Z,53.87
2017-05-25T07:45:59.573Z,51.77
2017-05-25T07:47:01.047Z,49.44
2017-05-25T07:48:02.524Z,46.39
2017-05-25T07:49:04.014Z,43.63
2017-05-25T07:50:05.480Z,42.66
2017-05-25T07:51:06.957Z,44.56
2017-05-25T07:52:08.432Z,44.46
2017-05-25T07:53:09.905Z,44.57
2017-05-25T07:54:11.381Z,43.98
2017-05-25T07:55:12.859Z,46.27
2017-05-25T07:56:14.350Z,46.27
2017-05-25T07:57:15.842Z,45.14
2017-05-25T07:58:17.322Z,45.76
2017-05-25T07:59:18.815Z,47.00
2017-05-25T08:00:20.286Z,47.87
2017-05-25T08:01:21.791Z,49.43
2017-05-25T08:02:23.271Z,51.94
2017-05-25T08:03:24.743Z,52.69
2017-05-25T08:04:26.221Z,52.61
2017-05-25T08:05:27.696Z,53.05
2017-05-25T08:06:29.173Z,54.97
2017-05-25T08:07:30.659Z,55.07
2017-05-25T08:08:32.141Z,55.57
2017-05-25T08:09:33.627Z,54.32
2017-05-25T08:10:35.104Z,52.09
2017-05-25T08:11:36.583Z,50.52
2017-05-25T08:12:38.065Z,50.71
2017-05-25T08:13:39.540Z,50.23
2017-05-25T08:14:41.011Z,51.77
2017-05-25T08:15:42.485Z,51.29
2017-05-25T08:16:43.970Z,51.92
2017-05-25T08:17:45.443Z,52.42
2017-05-25T08:18:46.919Z,51.68
2017-05-25T08:19:48.393Z,48.01
2017-05-25T08:20:49.866Z,45.35
2017-05-25T08:21:51.341Z,44.67
2017-05-25T08:22:52.811Z,42.88
2017-05-25T08:23:54.296Z,42.18
2017-05-25T08:24:55.772Z,42.86
2017-05-25T08:25:57.254Z,41.82
2017-05-25T08:26:58.733Z,40.69
2017-05-25T08:28:00.237Z,39.06
2017-05-25T08:29:01.720Z,38.91
2017-05-25T08:30:03.212Z,37.84
2017-05-25T08:31:04.685Z,37.63
2017-05-25T08:32:06.172Z,37.92
2017-05-25T08:33:07.650Z,37.08
2017-05-25T08:34:09.139Z,36.34
2017-05-25T08:35:10.617Z,35.82
2017-05-25T08:36:12.107Z,35.53
2017-05-25T08:37:13.587Z,36.58
2017-05-25T08:38:15.079Z,38.02
2017-05-25T08:39:16.557Z,39.16
2017-05-25T08:40:18.032Z,40.09
2017-05-25T08:41:19.516Z,40.65
2017-05-25T08:42:20.992Z,41.85
2017-05-25T08:43:22.470Z,44.43
2017-05-25T08:44:23.954Z,44.60
2017-05-25T08:45:25.423Z,43.37
2017-05-25T08:46:26.903Z,43.95
2017-05-25T08:47:28.383Z,44.07
2017-05-25T08:48:29.873Z,42.40
2017-05-25T08:49:31.353Z,40.48
2017-05-25T08:50:32.828Z,40.31
2017-05-25T08:51:34.306Z,38.09
2017-05-25T08:52:35.790Z,36.56
2017-05-25T08:53:37.268Z,35.80
2017-05-25T08:54:38.764Z,35.80
2017-05-25T08:55:40.243Z,35.69
2017-05-25T08:56:41.726Z,35.67
2017-05-25T08:57:43.219Z,37.90
2017-05-25T08:58:44.697Z,35.08
2017-05-25T08:59:46.183Z,32.96
2017-05-25T09:00:47.664Z,33.06
2017-05-25T09:01:49.140Z,32.82
2017-05-25T09:02:50.620Z,33.51
2017-05-25T09:03:52.102Z,33.41
2017-05-25T09:04:53.583Z,33.62
2017-05-25T09:05:55.069Z,32.55
2017-05-25T09:06:56.548Z,32.96
2017-05-25T09:07:58.030Z,33.61
2017-05-25T09:08:59.514Z,35.41
2017-05-25T09:10:01.001Z,34.87
2017-05-25T09:11:02.488Z,33.33
2017-05-25T09:12:03.988Z,33.54
2017-05-25T09:13:05.466Z,32.18
2017-05-25T09:14:06.950Z,33.06
2017-05-25T09:15:08.430Z,32.39
2017-05-25T09:16:09.911Z,29.99
2017-05-25T09:17:11.421Z,31.04
2017-05-25T09:18:12.906Z,32.68
2017-05-25T09:19:14.385Z,30.81
2017-05-25T09:20:15.875Z,28.88
2017-05-25T09:21:17.359Z,29.46
2017-05-25T09:22:18.847Z,30.13
2017-05-25T09:23:20.335Z,30.21
2017-05-25T09:24:21.814Z,30.87
2017-05-25T09:25:23.297Z,31.92
2017-05-25T09:26:24.788Z,31.92
2017-05-25T09:27:26.267Z,31.45
2017-05-25T09:28:27.756Z,31.63
2017-05-25T09:29:29.251Z,32.50
2017-05-25T09:30:30.730Z,32.31
2017-05-25T09:31:32.221Z,32.49
2017-05-25T09:32:33.709Z,31.74
2017-05-25T09:33:35.190Z,30.96
2017-05-25T09:34:37.485Z,30.94
2017-05-25T09:35:38.923Z,31.79
2017-05-25T09:36:40.404Z,31.14
2017-05-25T09:37:41.895Z,30.94
2017-05-25T09:38:43.375Z,32.28
2017-05-25T09:39:44.850Z,31.81
2017-05-25T09:40:46.333Z,31.85
2017-05-25T09:41:47.823Z,30.49
2017-05-25T09:42:49.309Z,29.33
2017-05-25T09:43:50.807Z,31.61
2017-05-25T09:44:52.291Z,32.87
2017-05-25T09:45:54.365Z,31.82
2017-05-25T09:46:55.850Z,31.41
2017-05-25T09:47:57.350Z,33.33
2017-05-25T09:48:58.841Z,33.62
2017-05-25T09:50:00.313Z,32.65
2017-05-25T09:51:01.797Z,33.78
2017-05-25T09:52:03.278Z,35.11
2017-05-25T09:53:04.770Z,33.61
2017-05-25T09:54:06.253Z,32.18
2017-05-25T09:55:07.731Z,30.75
2017-05-25T09:56:09.281Z,31.32
2017-05-25T09:57:10.767Z,31.41
2017-05-25T09:58:12.254Z,33.78
2017-05-25T09:59:13.748Z,33.02
2017-05-25T10:00:15.232Z,31.16
2017-05-25T10:01:16.713Z,29.19
2017-05-25T10:02:18.193Z,31.11
2017-05-25T10:03:19.673Z,32.67
2017-05-25T10:04:21.248Z,32.62
2017-05-25T10:05:22.737Z,33.76
2017-05-25T10:06:24.229Z,33.59
2017-05-25T10:07:25.723Z,33.61
2017-05-25T10:08:27.206Z,32.21
2017-05-25T10:09:28.685Z,29.32
2017-05-25T10:10:30.165Z,27.56
2017-05-25T10:11:31.656Z,29.30
2017-05-25T10:12:33.139Z,29.28
2017-05-25T10:13:34.618Z,29.61
2017-05-25T10:14:36.125Z,27.39
2017-05-25T10:15:37.609Z,27.22
2017-05-25T10:16:39.097Z,26.64
2017-05-25T10:17:40.576Z,25.40
2017-05-25T10:18:42.077Z,27.01
2017-05-25T10:19:43.564Z,27.06
2017-05-25T10:20:45.048Z,28.70
2017-05-25T10:21:46.539Z,28.64
2017-05-25T10:22:48.024Z,26.70
2017-05-25T10:23:49.506Z,26.81
2017-05-25T10:24:50.987Z,26.90
2017-05-25T10:25:52.487Z,27.68
2017-05-25T10:26:53.981Z,27.97
2017-05-25T10:27:55.467Z,27.89
2017-05-25T10:28:56.965Z,26.59
2017-05-25T10:29:58.451Z,25.93
2017-05-25T10:30:59.933Z,27.41
2017-05-25T10:32:01.417Z,26.80
2017-05-25T10:33:02.896Z,27.97
2017-05-25T10:34:04.386Z,27.37
2017-05-25T10:35:05.871Z,27.55
2017-05-25T10:36:07.359Z,29.29
2017-05-25T10:37:08.844Z,28.74
2017-05-25T10:38:10.325Z,29.00
2017-05-25T10:39:11.805Z,27.30
2017-05-25T10:40:13.287Z,26.27
2017-05-25T10:41:14.772Z,25.01
2017-05-25T10:42:16.264Z,25.78
2017-05-25T10:43:17.751Z,26.52
2017-05-25T10:44:19.231Z,27.29
2017-05-25T10:45:20.715Z,27.01
2017-05-25T10:46:22.205Z,27.51
2017-05-25T10:47:23.692Z,26.51
2017-05-25T10:48:25.177Z,27.18
2017-05-25T10:49:26.670Z,27.95
2017-05-25T10:50:28.184Z,28.82
2017-05-25T10:51:29.670Z,28.08
2017-05-25T10:52:31.173Z,26.25
2017-05-25T10:53:32.663Z,27.02
2017-05-25T10:54:34.158Z,27.30
2017-05-25T10:55:35.659Z,27.48
2017-05-25T10:56:37.152Z,28.30
2017-05-25T10:57:38.647Z,25.23
2017-05-25T10:58:40.140Z,25.15
2017-05-25T10:59:41.633Z,23.39
2017-05-25T11:00:43.121Z,24.15
2017-05-25T11:01:44.599Z,23.71
2017-05-25T11:02:46.087Z,22.14
2017-05-25T11:03:47.572Z,23.60
2017-05-25T11:04:49.089Z,22.91
2017-05-25T11:05:50.573Z,23.60
2017-05-25T11:06:52.062Z,23.97
2017-05-25T11:07:53.551Z,24.47
2017-05-25T11:08:55.046Z,24.36
2017-05-25T11:09:56.541Z,23.77
2017-05-25T11:10:58.086Z,25.32
2017-05-25T11:11:59.574Z,24.36
2017-05-25T11:13:01.068Z,24.37
2017-05-25T11:14:02.555Z,22.81
2017-05-25T11:15:04.035Z,24.48
2017-05-25T11:16:05.531Z,24.26
2017-05-25T11:17:07.036Z,23.58
2017-05-25T11:18:08.523Z,23.57
2017-05-25T11:19:10.020Z,25.68
2017-05-25T11:20:11.517Z,25.00
2017-05-25T11:21:13.000Z,25.89
2017-05-25T11:22:14.484Z,26.28
2017-05-25T11:23:15.968Z,26.25
2017-05-25T11:24:17.451Z,26.17
2017-05-25T11:25:19.004Z,25.33
2017-05-25T11:26:20.522Z,24.66
2017-05-25T11:27:22.006Z,22.66
2017-05-25T11:28:23.490Z,22.62
2017-05-25T11:29:24.987Z,22.53
2017-05-25T11:30:26.473Z,22.26
2017-05-25T11:31:27.965Z,21.69
2017-05-25T11:32:29.458Z,21.66
2017-05-25T11:33:30.949Z,21.37
2017-05-25T11:34:32.476Z,21.20
2017-05-25T11:35:33.960Z,20.39
2017-05-25T11:36:35.438Z,20.70
2017-05-25T11:37:36.932Z,20.41
2017-05-25T11:38:38.419Z,21.66
2017-05-25T11:39:39.903Z,21.56
2017-05-25T11:40:41.390Z,21.78
2017-05-25T11:41:42.882Z,22.81
2017-05-25T11:42:44.359Z,24.41
2017-05-25T11:43:45.844Z,26.82
2017-05-25T11:44:47.327Z,26.29
2017-05-25T11:45:48.830Z,24.63
2017-05-25T11:46:50.321Z,25.05
2017-05-25T11:47:51.804Z,23.80
2017-05-25T11:48:53.291Z,22.71
2017-05-25T11:49:54.789Z,23.61
2017-05-25T11:50:56.270Z,21.77
2017-05-25T11:51:57.762Z,22.87
2017-05-25T11:52:59.259Z,24.41
2017-05-25T11:54:00.785Z,24.84
2017-05-25T11:55:02.272Z,24.54
2017-05-25T11:56:04.345Z,24.08
2017-05-25T11:57:05.839Z,22.92
2017-05-25T11:58:07.336Z,23.85
2017-05-25T11:59:08.825Z,24.64
2017-05-25T12:00:10.310Z,24.93
2017-05-25T12:01:11.797Z,25.11
2017-05-25T12:02:13.286Z,26.73
2017-05-25T12:03:14.793Z,27.05
2017-05-25T12:04:16.309Z,26.45
2017-05-25T12:05:17.796Z,27.06
2017-05-25T12:06:19.294Z,27.30
2017-05-25T12:07:20.779Z,28.25
2017-05-25T12:08:22.269Z,28.85
2017-05-25T12:09:23.772Z,27.70
2017-05-25T12:10:25.260Z,26.28
2017-05-25T12:11:26.743Z,24.55
2017-05-25T12:12:28.233Z,22.73
2017-05-25T12:13:29.717Z,22.26
2017-05-25T12:14:31.207Z,21.95
2017-05-25T12:15:32.692Z,23.88
2017-05-25T12:16:34.180Z,22.47
2017-05-25T12:17:35.669Z,21.20
2017-05-25T12:18:37.164Z,21.29
2017-05-25T12:19:38.647Z,22.25
2017-05-25T12:20:40.133Z,22.92
2017-05-25T12:21:41.619Z,21.69
2017-05-25T12:22:43.106Z,22.36
2017-05-25T12:23:44.592Z,23.90
2017-05-25T12:24:46.083Z,23.11
2017-05-25T12:25:47.562Z,21.86
2017-05-25T12:26:49.065Z,22.66
2017-05-25T12:27:50.549Z,21.59
2017-05-25T12:28:52.039Z,21.40
2017-05-25T12:29:53.537Z,21.85
2017-05-25T12:30:55.026Z,23.71
2017-05-25T12:31:56.508Z,22.64
2017-05-25T12:32:58.003Z,21.76
2017-05-25T12:33:59.500Z,24.38
2017-05-25T12:35:00.994Z,23.41
2017-05-25T12:36:02.490Z,22.17
2017-05-25T12:37:03.994Z,21.96
2017-05-25T12:38:05.479Z,22.20
2017-05-25T12:39:06.971Z,23.88
2017-05-25T12:40:08.453Z,23.42
2017-05-25T12:41:09.940Z,21.96
2017-05-25T12:42:11.430Z,21.49
2017-05-25T12:43:12.922Z,21.58
2017-05-25T12:44:14.419Z,21.76
2017-05-25T12:45:15.914Z,22.66
2017-05-25T12:46:17.408Z,21.87
2017-05-25T12:47:18.902Z,22.08
2017-05-25T12:48:20.387Z,21.22
2017-05-25T12:49:21.880Z,20.20
2017-05-25T12:50:23.364Z,21.75
2017-05-25T12:51:24.846Z,22.53
2017-05-25T12:52:26.336Z,23.13
2017-05-25T12:53:27.821Z,21.83
2017-05-25T12:54:29.308Z,22.45
2017-05-25T12:55:30.803Z,22.35
2017-05-25T12:56:32.287Z,22.62
2017-05-25T12:57:33.783Z,23.22
2017-05-25T12:58:35.309Z,22.91
2017-05-25T12:59:36.795Z,24.79
2017-05-25T13:00:38.287Z,27.87
2017-05-25T13:01:39.774Z,27.64
2017-05-25T13:02:41.259Z,25.32
2017-05-25T13:03:42.749Z,24.92
2017-05-25T13:04:44.228Z,25.99
2017-05-25T13:05:45.716Z,26.10
2017-05-25T13:06:47.208Z,24.73
2017-05-25T13:07:48.698Z,25.04
2017-05-25T13:08:50.187Z,24.27
2017-05-25T13:09:51.669Z,24.65
2017-05-25T13:10:53.153Z,23.03
2017-05-25T13:11:54.636Z,22.81